Hlavní strana
METAR-TAF:

METAR-TAF

Letiště :

Bennettsville, Jižní Karolína, Spojené státy americké

zeměpisná šířka: 34-37-18N, zeměpisná délka: 079-44-04W, výška: 45 m

Aktuální stav počasí

Zpráva byla vytvořena před 22 minutami, v 23:35 UTC
Jihozápadní vítr 6 kt
Teplota 10°C
Vlhkost vzduchu 76%
Tlak 1005 hPa
Viditelnost: 16.1 km
Jasno

METAR: KBBP 302335Z AUTO 23006KT 10SM CLR 10/06 A2967 RMK AO2

Čas: 18:57 (23:57 UTC)


TAF: chybějící

Stav a předpovědi počasí z více než 4 000 letišť (zprávy METAR a TAF).

Červené a žluté tečky na mapě představují dostupné meteorologické stanice.

Když kurzor umístíte na tečku, zobrazí se název stanice.

Pak kliknutím zobrazíte stav a předpověď počasí.

Chcete-li změnit mapu, kliknutím na zelené tlačítko se znaménkem +mapu přiblížíte, kliknutím na zelené tlačítko se znaménkem – mapu oddálíte a kliknutím na zelené šipky přejdete na sousední mapy.


METAR-TAF: